createdAt,value
2023-03-06T00:03:56.133Z,1.88
2023-03-06T00:08:59.370Z,3.38
2023-03-06T00:14:02.554Z,2.45
2023-03-06T00:19:07.316Z,2.50
2023-03-06T00:24:10.552Z,1.38
2023-03-06T00:29:13.734Z,2.10
2023-03-06T00:34:19.152Z,1.67
2023-03-06T00:39:23.568Z,1.10
2023-03-06T00:44:27.048Z,1.20
2023-03-06T00:49:31.883Z,1.15
2023-03-06T00:59:38.897Z,2.38
2023-03-06T01:04:44.300Z,2.78
2023-03-06T01:09:47.840Z,2.75
2023-03-06T01:14:51.814Z,5.38
2023-03-06T01:19:57.468Z,4.75
2023-03-06T01:25:00.727Z,2.70
2023-03-06T01:30:05.460Z,4.25
2023-03-06T01:35:10.764Z,4.38
2023-03-06T01:40:14.299Z,2.90
2023-03-06T01:45:51.065Z,2.72
2023-03-06T01:50:55.791Z,3.13
2023-03-06T01:55:59.062Z,4.10
2023-03-06T02:01:02.508Z,4.70
2023-03-06T02:06:08.496Z,4.23
2023-03-06T02:11:15.560Z,3.83
2023-03-06T02:16:23.655Z,3.40
2023-03-06T02:21:33.052Z,3.65
2023-03-06T02:26:39.142Z,4.65
2023-03-06T02:31:43.897Z,3.33
2023-03-06T02:36:50.246Z,2.97
2023-03-06T02:41:55.344Z,3.00
2023-03-06T02:46:58.822Z,3.80
2023-03-06T02:52:02.344Z,2.63
2023-03-06T02:57:07.027Z,3.33
2023-03-06T03:02:11.379Z,3.13
2023-03-06T03:07:14.761Z,3.05
2023-03-06T03:12:22.719Z,3.38
2023-03-06T03:17:26.968Z,3.40
2023-03-06T03:22:30.548Z,4.45
2023-03-06T03:27:35.298Z,2.63
2023-03-06T03:32:40.106Z,3.38
2023-03-06T03:37:43.433Z,2.63
2023-03-06T03:42:48.225Z,3.00
2023-03-06T03:52:55.243Z,2.75
2023-03-06T03:58:00.033Z,2.28
2023-03-06T04:03:04.374Z,2.08
2023-03-06T04:08:12.336Z,2.67
2023-03-06T04:13:22.252Z,2.05
2023-03-06T04:18:26.635Z,2.05
2023-03-06T04:23:34.413Z,2.92
2023-03-06T04:28:39.592Z,2.38
2023-03-06T04:38:46.915Z,1.60
2023-03-06T04:43:52.090Z,1.60
2023-03-06T04:48:55.448Z,1.42
2023-03-06T04:53:58.790Z,2.50
2023-03-06T04:59:05.381Z,1.73
2023-03-06T05:04:09.130Z,2.40
2023-03-06T05:09:12.434Z,2.38
2023-03-06T05:14:17.008Z,2.20
2023-03-06T05:19:20.725Z,1.73
2023-03-06T05:24:24.005Z,2.55
2023-03-06T05:29:29.150Z,2.38
2023-03-06T05:34:32.444Z,1.42
2023-03-06T05:39:35.620Z,1.88
2023-03-06T05:44:41.769Z,1.60
2023-03-06T05:49:45.285Z,1.90
2023-03-06T05:54:51.056Z,2.40
2023-03-06T05:59:56.138Z,1.80
2023-03-06T06:10:03.820Z,1.52
2023-03-06T06:15:09.525Z,1.50
2023-03-06T06:20:14.350Z,1.23
2023-03-06T06:25:17.759Z,1.37
2023-03-06T06:30:23.341Z,2.25
2023-03-06T06:35:27.033Z,1.70
2023-03-06T06:40:30.289Z,1.40
2023-03-06T06:45:34.935Z,1.38
2023-03-06T06:50:38.640Z,1.23
2023-03-06T06:55:42.979Z,1.67
2023-03-06T07:00:47.598Z,2.17
2023-03-06T07:05:54.995Z,1.17
2023-03-06T07:10:58.845Z,1.75
2023-03-06T07:16:03.833Z,2.08
2023-03-06T07:21:07.405Z,1.88
2023-03-06T07:26:11.299Z,1.73
2023-03-06T07:31:16.038Z,1.73
2023-03-06T07:36:19.920Z,1.95
2023-03-06T07:41:23.538Z,1.63
2023-03-06T07:46:28.852Z,2.78
2023-03-06T07:51:32.168Z,2.53
2023-03-06T07:56:35.599Z,2.33
2023-03-06T08:01:40.413Z,2.80
2023-03-06T08:06:43.986Z,2.17
2023-03-06T08:11:47.594Z,1.50
2023-03-06T08:16:54.738Z,2.38
2023-03-06T08:21:58.172Z,2.30
2023-03-06T08:27:01.621Z,3.03
2023-03-06T08:32:06.776Z,2.03
2023-03-06T08:37:10.176Z,1.67
2023-03-06T08:42:13.843Z,2.20
2023-03-06T08:47:18.782Z,1.73
2023-03-06T08:52:22.114Z,2.42
2023-03-06T08:57:26.266Z,1.93
2023-03-06T09:02:32.081Z,1.80
2023-03-06T09:07:35.598Z,2.35
2023-03-06T09:12:49.479Z,1.55
2023-03-06T09:17:56.728Z,1.77
2023-03-06T09:23:00.104Z,1.10
2023-03-06T09:28:11.421Z,1.67
2023-03-06T09:33:17.069Z,1.73
2023-03-06T09:38:21.846Z,1.30
2023-03-06T09:43:30.084Z,1.85
2023-03-06T09:48:47.078Z,1.17
2023-03-06T09:53:59.038Z,1.52
2023-03-06T09:59:07.729Z,2.22
2023-03-06T10:04:30.733Z,1.33
2023-03-06T10:09:41.453Z,1.83
2023-03-06T10:14:49.106Z,1.52
2023-03-06T10:19:54.505Z,1.52
2023-03-06T10:30:21.501Z,1.45
2023-03-06T10:35:31.091Z,0.60
2023-03-06T10:40:40.714Z,0.70
2023-03-06T10:45:51.929Z,1.73
2023-03-06T10:51:18.049Z,1.05
2023-03-06T10:56:33.619Z,1.42
2023-03-06T11:06:41.649Z,1.50
2023-03-06T11:11:45.244Z,1.05
2023-03-06T11:16:53.112Z,1.35
2023-03-06T11:22:03.218Z,1.65
2023-03-06T11:27:19.027Z,1.30
2023-03-06T11:32:27.570Z,1.02
2023-03-06T11:37:45.462Z,1.92
2023-03-06T11:42:56.039Z,1.67
2023-03-06T11:48:08.888Z,1.10
2023-03-06T11:53:16.079Z,1.02
2023-03-06T11:58:56.258Z,1.52
2023-03-06T12:04:26.044Z,1.15
2023-03-06T12:09:41.851Z,1.67
2023-03-06T12:14:58.129Z,1.00
2023-03-06T12:20:29.699Z,1.95
2023-03-06T12:25:36.998Z,1.10
2023-03-06T12:31:02.479Z,1.52
2023-03-06T12:36:26.977Z,0.95
2023-03-06T12:41:43.264Z,1.42
2023-03-06T12:46:51.611Z,1.20
2023-03-06T12:51:56.222Z,1.15
2023-03-06T12:57:01.501Z,1.10
2023-03-06T13:02:32.537Z,1.02
2023-03-06T13:07:47.512Z,1.27
2023-03-06T13:12:58.080Z,1.13
2023-03-06T13:18:02.572Z,1.13
2023-03-06T13:23:43.575Z,1.20
2023-03-06T13:28:50.582Z,1.00
2023-03-06T13:33:59.846Z,0.80
2023-03-06T13:39:06.109Z,1.25
2023-03-06T13:44:41.830Z,1.02
2023-03-06T13:49:46.585Z,0.73
2023-03-06T13:55:02.449Z,0.95
2023-03-06T14:00:36.638Z,0.80
2023-03-06T14:05:44.645Z,1.48
2023-03-06T14:10:59.235Z,0.90
2023-03-06T14:16:11.308Z,0.60
2023-03-06T14:21:21.441Z,0.90
2023-03-06T14:26:26.277Z,1.00
2023-03-06T14:31:33.549Z,1.15
2023-03-06T14:36:43.778Z,1.60
2023-03-06T14:41:47.123Z,1.80
2023-03-06T14:46:55.119Z,7.63
2023-03-06T14:52:02.338Z,2.35
2023-03-06T14:57:08.888Z,0.60
2023-03-06T15:02:19.892Z,0.95
2023-03-06T15:07:27.909Z,1.08
2023-03-06T15:12:36.971Z,1.02
2023-03-06T15:17:43.067Z,0.68
2023-03-06T15:22:50.742Z,0.80
2023-03-06T15:27:56.517Z,0.93
2023-03-06T15:33:22.225Z,0.80
2023-03-06T15:38:31.574Z,0.70
2023-03-06T15:43:38.611Z,1.30
2023-03-06T15:48:53.592Z,0.95
2023-03-06T15:59:21.642Z,0.98
2023-03-06T16:04:26.345Z,1.10
2023-03-06T16:09:29.634Z,0.75
2023-03-06T16:14:32.997Z,1.17
2023-03-06T16:19:37.601Z,1.17
2023-03-06T16:24:41.716Z,1.05
2023-03-06T16:29:45.362Z,0.80
2023-03-06T16:34:50.117Z,1.45
2023-03-06T16:39:53.324Z,1.05
2023-03-06T16:44:56.463Z,0.90
2023-03-06T16:50:02.339Z,0.93
2023-03-06T16:55:06.183Z,2.08
2023-03-06T17:00:11.421Z,2.25
2023-03-06T17:05:17.890Z,2.55
2023-03-06T17:10:25.578Z,3.03
2023-03-06T17:15:29.118Z,1.67
2023-03-06T17:20:33.750Z,1.88
2023-03-06T17:25:38.402Z,1.90
2023-03-06T17:30:41.636Z,1.38
2023-03-06T17:35:46.961Z,1.77
2023-03-06T17:40:50.245Z,2.05
2023-03-06T17:45:53.426Z,1.88
2023-03-06T17:50:58.753Z,3.03
2023-03-06T17:56:04.196Z,6.80
2023-03-06T18:01:10.986Z,11.82
2023-03-06T18:06:16.970Z,7.85
2023-03-06T18:11:20.550Z,7.65
2023-03-06T18:16:26.005Z,5.22
2023-03-06T18:21:30.733Z,3.50
2023-03-06T18:26:34.274Z,4.05
2023-03-06T18:31:39.424Z,3.05
2023-03-06T18:36:47.103Z,3.30
2023-03-06T18:41:51.715Z,3.67
2023-03-06T18:46:55.054Z,4.22
2023-03-06T18:51:59.618Z,2.72
2023-03-06T18:57:02.918Z,3.65
2023-03-06T19:02:07.105Z,3.13
2023-03-06T19:07:13.001Z,3.77
2023-03-06T19:12:17.464Z,3.55
2023-03-06T19:17:20.660Z,1.98
2023-03-06T19:22:25.529Z,2.60
2023-03-06T19:27:30.149Z,2.70
2023-03-06T19:32:34.099Z,2.58
2023-03-06T19:37:38.896Z,2.97
2023-03-06T19:42:42.189Z,2.60
2023-03-06T19:47:45.744Z,3.47
2023-03-06T19:52:52.348Z,4.45
2023-03-06T19:57:55.610Z,5.68
2023-03-06T20:02:58.926Z,3.20
2023-03-06T20:08:03.681Z,4.20
2023-03-06T20:13:10.949Z,4.50
2023-03-06T20:18:14.938Z,3.28
2023-03-06T20:23:19.466Z,3.80
2023-03-06T20:33:27.062Z,5.70
2023-03-06T20:38:31.930Z,3.85
2023-03-06T20:43:35.227Z,2.95
2023-03-06T20:48:38.947Z,3.17
2023-03-06T20:53:43.658Z,4.22
2023-03-06T20:58:47.483Z,3.78
2023-03-06T21:03:51.323Z,3.40
2023-03-06T21:08:56.148Z,3.30
2023-03-06T21:14:00.788Z,2.90
2023-03-06T21:19:05.276Z,3.08
2023-03-06T21:24:10.211Z,3.28
2023-03-06T21:34:16.867Z,2.50
2023-03-06T21:39:21.500Z,2.90
2023-03-06T21:44:25.148Z,3.28
2023-03-06T21:49:29.354Z,2.60
2023-03-06T21:54:33.958Z,3.13
2023-03-06T21:59:37.694Z,3.53
2023-03-06T22:04:41.722Z,3.08
2023-03-06T22:09:46.764Z,3.53
2023-03-06T22:14:50.091Z,1.30
2023-03-06T22:19:53.958Z,3.38
2023-03-06T22:24:58.662Z,2.05
2023-03-06T22:35:06.414Z,2.28
2023-03-06T22:40:12.399Z,2.78
2023-03-06T22:45:16.030Z,4.00
2023-03-06T22:50:19.677Z,3.60
2023-03-06T22:55:24.472Z,3.03
2023-03-06T23:00:28.685Z,4.13
2023-03-06T23:05:32.346Z,3.08
2023-03-06T23:10:39.322Z,3.60
2023-03-06T23:16:02.995Z,2.55
2023-03-06T23:21:25.909Z,4.23
2023-03-06T23:26:49.253Z,2.70
2023-03-06T23:31:52.706Z,1.83
2023-03-06T23:36:56.628Z,3.35
2023-03-06T23:42:01.602Z,2.63
2023-03-06T23:47:05.773Z,3.13
2023-03-06T23:52:09.061Z,1.80
2023-03-06T23:57:13.588Z,2.78
